• Join FlightAware (Why Join?)
  • Login
  • US Flag 
05:22AM EDT


 

Airport Tracker/Info


-or-


 

Live Flight TrackerFlight Track Log ✈ N247MW ✈ 06-Jul-2013 ✈ KSAW - KCGF

Flight Track Log - Related Links

Times and Time Zones

All times are in EDT time to prevent confusion due to time zone crossing. See the N247MW flight status page for this flight to view local times or setup timezone preferences in your user account.

Time Position Orientation Groundspeed Altitude Reporting Facility
EDT Latitude Longitude Course Direction KTS MPH feet Rate Location/Type
09:01AM 46.3014 -87.3839 136° Southeast 128 147 5,000  Level Minneapolis Center
09:02AM 46.2900 -87.3064 102° East 194 223 3,200 -660 Descending Minneapolis Center
09:03AM 46.2711 -87.2297 110° East 198 228 3,700 420 Climbing Minneapolis Center
09:04AM 46.2489 -87.1497 112° Southeast 209 241 4,200 480 Climbing Minneapolis Center
09:05AM 46.2294 -87.0756 111° Southeast 196 226 4,900 300 Climbing Minneapolis Center
09:06AM 46.1992 -86.9836 115° Southeast 202 232 4,900  Level Minneapolis Center
09:07AM 46.1178 -87.0708 136° Southeast  Level Estimated
09:07AM 46.1797 -86.9033 109° East 207 238 4,900  Level Minneapolis Center
09:08AM 46.1603 -86.8236 109° East 206 237 4,900  Level Minneapolis Center
09:09AM 46.1422 -86.7444 108° East 205 236 4,900  Level Minneapolis Center
09:10AM 46.1239 -86.6636 108° East 207 238 4,900  Level Minneapolis Center
09:11AM 46.1039 -86.5847 110° East 207 238 4,900  Level Minneapolis Center
09:12AM 46.0781 -86.5108 117° Southeast 204 235 4,900  Level Minneapolis Center
09:13AM 46.0578 -86.4525 117° Southeast 205 236 4,900  Level Minneapolis Center
09:14AM 46.0278 -86.3597 115° Southeast 205 236 4,900  Level Minneapolis Center
09:16AM 46.0069 -86.2811 111° Southeast 206 237 4,900  Level Minneapolis Center
09:17AM 45.9875 -86.2069 111° Southeast 205 236 4,900  Level Minneapolis Center
09:18AM 45.9564 -86.1369 123° Southeast 202 232 4,900  Level Minneapolis Center
09:19AM 45.9158 -86.0939 144° Southeast 198 228 5,000  Climbing Minneapolis Center
09:20AM 45.8756 -86.0419 138° Southeast 198 228 5,000  Level Minneapolis Center
09:21AM 45.8361 -85.9842 134° Southeast 198 228 5,000  Level Minneapolis Center
09:22AM 45.7964 -85.9336 138° Southeast 196 226 5,000 -60 Level Minneapolis Center
09:23AM 45.7561 -85.8778 136° Southeast 196 226 4,900 -60 Descending Minneapolis Center
09:24AM 45.7075 -85.8106 136° Southeast 200 230 4,900  Level Minneapolis Center
09:25AM 45.6597 -85.7461 137° Southeast 200 230 4,900  Level Minneapolis Center
09:26AM 45.6194 -85.6919 137° Southeast 199 229 4,900  Level Minneapolis Center
09:27AM 45.5797 -85.6383 137° Southeast 198 228 4,900  Level Minneapolis Center
09:28AM 45.5308 -85.5731 137° Southeast 199 229 4,900  Level Minneapolis Center
09:29AM 45.4903 -85.5194 137° Southeast 199 229 4,900  Level Minneapolis Center
09:30AM 45.4494 -85.4650 137° Southeast 200 230 4,900  Level Minneapolis Center
09:31AM 45.4089 -85.4106 137° Southeast 200 230 4,900  Level Minneapolis Center
09:32AM 45.3686 -85.3581 138° Southeast 199 229 4,900  Level Minneapolis Center
09:33AM 45.3200 -85.2942 137° Southeast 198 228 4,900  Level Minneapolis Center
09:34AM 45.2778 -85.2456 141° Southeast 197 227 4,900  Level Minneapolis Center
09:35AM 45.2317 -85.2075 150° Southeast 194 223 4,900  Level Minneapolis Center
09:37AM 45.1856 -85.1678 149° Southeast 193 222 4,900  Level Minneapolis Center
09:38AM 45.1392 -85.1272 148° Southeast 194 223 4,900  Level Minneapolis Center
09:39AM 45.0850 -85.0775 147° Southeast 195 224 4,900  Level Minneapolis Center
09:40AM 45.0386 -85.0369 148° Southeast 195 224 4,900  Level Minneapolis Center
09:41AM 44.9928 -84.9975 149° Southeast 194 223 4,900  Level Minneapolis Center
09:42AM 44.9464 -84.9572 148° Southeast 194 223 4,900  Level Minneapolis Center
09:43AM 44.9089 -84.9253 149° Southeast 195 224 4,900  Level Minneapolis Center
09:44AM 44.8433 -84.8689 149° Southeast 199 229 5,000  Climbing Minneapolis Center
09:45AM 44.7969 -84.8286 148° Southeast 196 226 4,900 -60 Descending Minneapolis Center
09:46AM 44.7536 -84.7903 148° Southeast 189 217 4,900  Level Minneapolis Center
09:47AM 44.7083 -84.7514 149° Southeast 189 217 4,900  Level Minneapolis Center
09:48AM 44.6628 -84.7097 147° Southeast 191 220 4,900  Level Minneapolis Center
09:49AM 44.6183 -84.6656 145° Southeast 193 222 4,900  Level Minneapolis Center
09:50AM 44.5739 -84.6225 145° Southeast 194 223 4,900  Level Minneapolis Center
09:51AM 44.5306 -84.5794 145° Southeast 194 223 4,900  Level Minneapolis Center
09:52AM 44.4778 -84.5297 146° Southeast 200 230 5,000  Climbing Minneapolis Center
09:53AM 44.4303 -84.4839 145° Southeast 195 224 5,000  Level Minneapolis Center
09:54AM 44.3869 -84.4408 145° Southeast 194 223 5,000  Level Minneapolis Center
09:55AM 44.3383 -84.3939 145° Southeast 199 229 5,000  Level Minneapolis Center
09:56AM 44.2947 -84.3522 146° Southeast 193 222 5,000  Level Minneapolis Center
09:57AM 44.2511 -84.3106 146° Southeast 192 221 5,000  Level Minneapolis Center
09:58AM 44.2036 -84.2642 145° Southeast 194 223 5,000  Level Minneapolis Center
09:59AM 44.1606 -84.2222 145° Southeast 193 222 5,000  Level Minneapolis Center
10:00AM 44.1128 -84.1778 146° Southeast 194 223 5,000  Level Minneapolis Center
10:01AM 44.0706 -84.1347 144° Southeast 192 221 5,000  Level Minneapolis Center
10:02AM 44.0244 -84.0858 143° Southeast 195 224 5,000  Level Minneapolis Center
10:03AM 43.9814 -84.0419 144° Southeast 194 223 5,000  Level Minneapolis Center
10:04AM 43.9492 -84.0097 144° Southeast 193 222 5,000  Level Minneapolis Center
10:06AM 43.8934 -83.9536 144° Southeast  Level FlightAware Approximate
10:13AM 43.5885 -83.6493 144° Southeast  Level FlightAware Approximate
10:13AM 43.5522 -83.6136 144° Southeast 191 220 5,000  Level Cleveland Center
10:14AM 43.5449 -83.6061 144° Southeast  Level FlightAware Approximate
10:14AM 43.5114 -83.5744 145° Southeast 191 220 5,000  Level Cleveland Center
10:15AM 43.5013 -83.5629 144° Southeast  Level FlightAware Approximate
10:15AM 43.4769 -83.5356 141° Southeast 191 220 5,000  Level Cleveland Center
10:16AM 43.4576 -83.5198 144° Southeast  Level FlightAware Approximate
10:17AM 43.4139 -83.4768 144° Southeast  Level FlightAware Approximate
10:17AM 43.4185 -83.4704 141° Southeast  Level Estimated
10:18AM 43.3703 -83.4338 144° Southeast  Level FlightAware Approximate
10:24AM 43.1258 -83.1466 141° Southeast  Level Estimated
10:25AM 43.0839 -83.1006 141° Southeast  Level Estimated
10:26AM 43.0420 -83.0547 141° Southeast  Level Estimated
10:27AM 43.0001 -83.0088 141° Southeast  Level Estimated
10:28AM 42.9581 -82.9630 141° Southeast  Level Estimated
10:29AM 42.9161 -82.9172 141° Southeast  Level Estimated
10:30AM 42.8742 -82.8715 141° Southeast  Level Estimated
10:31AM 42.8322 -82.8259 141° Southeast  Level Estimated
10:32AM 42.7901 -82.7803 141° Southeast  Level Estimated
10:33AM 42.7481 -82.7348 142° Southeast  Level Estimated
10:34AM 42.7061 -82.6894 142° Southeast  Level Estimated
10:35AM 42.6640 -82.6440 142° Southeast  Level Estimated
10:35AM 42.6181 -82.6936 142° Southeast 197 227 5,000  Level Cleveland Center
10:36AM 42.6219 -82.5987 142° Southeast  Level Estimated
10:36AM 42.5728 -82.6528 146° Southeast 197 227 5,000  Level Cleveland Center
10:37AM 42.5798 -82.5534 142° Southeast  Level Estimated
10:37AM 42.5300 -82.6089 143° Southeast 197 227 5,000  Level Cleveland Center
10:38AM 42.5377 -82.5082 142° Southeast  Level Estimated
10:38AM 42.4869 -82.5681 145° Southeast 197 227 4,900  Level Cleveland Center
10:39AM 42.4955 -82.4631 142° Southeast  Level Estimated
10:39AM 42.4439 -82.5275 145° Southeast 197 227 4,900  Level Cleveland Center
10:40AM 42.4008 -82.4839 143° Southeast 192 221 4,900  Level Cleveland Center
10:41AM 42.3575 -82.4433 145° Southeast 192 221 4,900  Level Cleveland Center
10:42AM 42.3167 -82.3944 138° Southeast 192 221 5,000  Climbing Cleveland Center
10:43AM 42.2778 -82.3456 137° Southeast 192 221 4,900 -60 Descending Cleveland Center
10:44AM 42.2389 -82.2994 139° Southeast 192 221 4,900  Level Cleveland Center
10:45AM 42.2000 -82.2481 136° Southeast 192 221 4,900  Level Cleveland Center
10:46AM 42.1592 -82.1994 139° Southeast 192 221 4,900  Level Cleveland Center
10:47AM 42.1203 -82.1508 137° Southeast 192 221 4,900  Level Cleveland Center
10:48AM 42.0750 -82.0964 138° Southeast 192 221 4,900  Level Cleveland Center
10:49AM 42.0361 -82.0481 137° Southeast 197 227 4,900  Level Cleveland Center
10:50AM 41.9928 -81.9997 140° Southeast 197 227 4,900  Level Cleveland Center
10:51AM 41.9622 -81.9403 125° Southeast 197 227 4,900  Level Cleveland Center
10:52AM 41.9358 -81.8867 123° Southeast 197 227 4,900  Level Cleveland Center
10:53AM 41.9094 -81.8219 119° Southeast 197 227 4,900  Level Cleveland Center
10:54AM 41.8789 -81.7600 124° Southeast 197 227 4,900  Level Cleveland Center
10:55AM 41.8483 -81.6981 123° Southeast 197 227 4,900 -120 Level Cleveland Center
10:56AM 41.8197 -81.6336 121° Southeast 197 227 4,700 -300 Descending Cleveland Center
10:57AM 41.7869 -81.5633 122° Southeast 197 227 4,300 -540 Descending Cleveland Center
10:58AM 41.7583 -81.4933 119° Southeast 181 208 3,600 -720 Descending Cleveland Center
10:59AM 41.7442 -81.4181 104° East 186 214 2,800 -420 Descending Cleveland Center
11:00AM 41.7342 -81.3678 105° East 131 151 2,800  Level Cleveland Center
11:01AM 41.7178 -81.3369 125° Southeast 108 124 2,800  Level Cleveland Center
11:02AM 41.6928 -81.3200 153° Southeast 107 123 2,800 -120 Level Cleveland Center
11:03AM 41.6678 -81.3336 202° Southwest 94 108 2,600 -120 Descending Cleveland Center
11:04AM 41.6489 -81.3583 224° Southwest 105 121 2,600 -180 Level Cleveland Center
11:05AM 41.6278 -81.3858 224° Southwest 105 121 2,300 -300 Descending Cleveland Center
11:06AM 41.6067 -81.4161 227° Southwest 108 124 2,100 -240 Descending Cleveland Center